Latest Coastal Weather Observations for Maatsuyker Island

IDT60701

Issued at 4:32 pm EST Monday 20 May 2019 (issued every 10 minutes, with the page automatically refreshed every 10 minutes)

About coastal observations | Map of coastal stations | Coastal observations for TAS | Marine services | Other Formats
Station Details ID: 094041 Name: MAATSUYKER ISLAND LIGHTHOUSE Lat: -43.66 Lon: 146.27 Height: 146.5 m
Data from the previous 72 hours. | See also: Recent months at Maatsuyker Island
Date/Time
EST
Wind Sea
Height
m
Swell Vis
km
Cloud Weather Temp
°C
Press
hPa
Rain since
9am
mm
Dir  Spd
kts
Gust
kts
Height
m
Period
s
Dir
20/04:30pm ENE 4 6 - - - - - - - 13.3 1013.2 1.0
20/04:00pm NNE 5 7 - - - - - - - 13.4 1013.5 1.0
20/03:30pm NNE 7 10 - - - - - - - 13.3 1014.0 1.0
20/03:00pm NE 9 11 - - - - - - - 12.9 1013.9 1.0
20/02:30pm N 8 13 - - - - - - - 12.9 1014.2 0.8
20/02:00pm N 9 13 - - - - - - - 13.0 1014.8 0.6
20/01:30pm N 7 11 - - - - - - - 13.6 1015.6 0.0
20/01:00pm N 9 11 - - - - - - - 14.0 1015.9 0.0
20/12:30pm N 7 9 - - - - - - - 14.3 1016.4 0.0
20/12:00pm N 6 9 - - - - - - - 16.1 1016.7 0.0
20/11:30am N 5 8 - - - - - - - 15.9 1017.2 0.0
20/11:00am NNW 5 8 - - - - - - - 15.4 1017.6 0.0
20/10:30am NNE 9 14 - - - - - - - 16.0 1017.6 0.0
20/10:00am N 7 12 - - - - - - - 16.0 1018.1 0.0
20/09:30am NE 7 9 - - - - - - - 15.1 1018.4 0.0
20/09:00am NNE 4 7 1 1.5 11 SW 20 Mostly cloudy Fine 14.5 1019.2 0.0
20/08:30am N 7 9 - - - - - - - 14.4 1019.3 0.0
20/08:00am N 8 11 - - - - - - - 14.1 1019.4 0.0
20/07:30am N 5 9 - - - - - - - 13.0 1019.6 0.0
20/07:00am N 8 13 - - - - - - - 14.3 1019.5 0.0
20/06:30am N 8 10 - - - - - - - 14.2 1019.7 0.0
20/06:00am N 8 11 1 1.5 11 SW 20 Mostly cloudy Fine 14.1 1020.2 0.0
20/05:30am N 9 11 - - - - - - - 13.3 1020.2 0.0
20/05:00am N 8 11 - - - - - - - 12.9 1020.4 0.0
20/04:30am N 8 9 - - - - - - - 12.7 1020.7 0.0
20/04:00am N 5 9 - - - - - - - 11.9 1021.1 0.0
20/03:30am N 8 10 - - - - - - - 13.0 1021.2 0.0
20/03:00am N 11 14 - - - - - - - 10.8 1021.9 0.0
20/02:30am N 5 6 - - - - - - - 11.0 1021.6 0.0
20/02:00am N 5 8 - - - - - - - 11.7 1021.9 0.0
20/01:30am N 5 6 - - - - - - - 11.7 1022.0 0.0
20/01:00am N 5 6 - - - - - - - 11.8 1022.2 0.0
20/12:30am N 5 6 - - - - - - - 11.1 1022.5 0.0
20/12:00am NNE 5 7 - - - - - - - 12.3 1022.9 0.0
 
Date/Time
EST
Wind Sea
Height
m
Swell Vis
km
Cloud Weather Temp
°C
Press
hPa
Rain since
9am
mm
Dir  Spd
kts
Gust
kts
Height
m
Period
s
Dir
19/11:30pm NNE 4 6 - - - - - - - 12.0 1022.8 0.0
19/11:00pm NNE 5 7 - - - - - - - 11.4 1023.1 0.0
19/10:30pm NW 4 8 - - - - - - - 11.4 1023.7 0.0
19/10:00pm NE 4 7 - - - - - - - 10.7 1023.9 0.0
19/09:30pm N 3 5 - - - - - - - 10.6 1024.0 0.0
19/09:00pm NE 8 11 - - - - - - - 11.3 1024.4 0.0
19/08:30pm NE 6 10 - - - - - - - 10.8 1024.3 0.0
19/08:00pm N 4 5 - - - - - - - 10.9 1024.6 0.0
19/07:30pm NNW 4 8 - - - - - - - 10.6 1024.7 0.0
19/07:00pm NW 4 7 - - - - - - - 10.6 1024.8 0.0
19/06:30pm NW 5 7 - - - - - - - 10.7 1024.8 0.0
19/06:00pm NNW 5 11 - - - - - - - 10.7 1025.1 0.0
19/05:30pm N 5 10 - - - - - - - 10.6 1025.0 0.0
19/05:00pm NW 4 7 - - - - - - - 10.5 1025.1 0.0
19/04:30pm NNW 3 6 - - - - - - - 11.1 1025.5 0.0
19/04:00pm N 2 7 - - - - - - - 11.8 1025.8 0.0
19/03:30pm NNE 2 5 - - - - - - - 11.7 1026.0 0.0
19/03:00pm N 1 5 - - - - - - - 12.0 1026.2 0.0
19/02:30pm SE 7 9 - - - - - - - 11.9 1026.2 0.0
19/02:00pm SSE 8 9 - - - - - - - 12.3 1026.3 0.0
19/01:30pm S 4 6 - - - - - - - 12.2 1026.6 0.0
19/01:00pm S 3 5 - - - - - - - 12.2 1026.8 0.0
19/12:30pm SW 2 5 - - - - - - - 12.3 1027.4 0.0
19/12:00pm NE 5 7 - - - - - - - 11.8 1027.9 0.0
19/11:30am NNW 3 5 - - - - - - - 12.0 1028.1 0.0
19/11:00am NW 7 8 - - - - - - - 11.9 1028.5 0.0
19/10:30am WSW 3 6 - - - - - - - 11.2 1028.7 0.0
19/10:00am SSW 4 6 - - - - - - - 10.8 1028.8 0.0
19/09:30am WSW 4 6 - - - - - - - 10.7 1028.9 0.0
19/09:00am W 4 5 1 2.0 13 SW 20 Mostly cloudy Fine 10.4 1029.2 0.0
19/08:30am WNW 4 6 - - - - - - - 10.1 1028.9 0.0
19/08:00am WNW 7 9 - - - - - - - 10.3 1029.0 0.0
19/07:30am W 4 6 - - - - - - - 10.0 1028.8 0.0
19/07:00am WNW 5 6 - - - - - - - 10.2 1028.7 0.0
19/06:30am NW 9 10 - - - - - - - 10.2 1028.6 0.0
19/06:00am NW 6 7 <0.5 1.5 12 SW 20 Partly cloudy Fine 10.0 1028.6 0.0
19/01:00am WNW 10 13 - - - - - - - 9.8 1029.8 0.0
 
Date/Time
EST
Wind Sea
Height
m
Swell Vis
km
Cloud Weather Temp
°C
Press
hPa
Rain since
9am
mm
Dir  Spd
kts
Gust
kts
Height
m
Period
s
Dir
18/11:00pm W 9 11 - - - - - - - 9.8 1030.3 0.0
18/10:30pm W 9 11 - - - - - - - 9.8 1030.4 0.0
18/10:00pm W 8 11 - - - - - - - 9.7 1030.4 0.0
18/09:30pm W 9 12 - - - - - - - 9.8 1030.3 0.0
18/09:00pm WNW 14 17 - - - - - - - 10.2 1030.5 0.0
18/08:30pm W 12 15 - - - - - - - 10.0 1030.1 0.0
18/08:00pm WNW 14 18 - - - - - - - 10.2 1029.8 0.0
18/07:30pm W 14 17 - - - - - - - 10.3 1029.6 0.0
18/07:00pm WNW 14 18 - - - - - - - 10.3 1029.5 0.0
18/06:30pm W 13 18 - - - - - - - 10.4 1029.3 0.0
18/06:00pm WNW 15 18 - - - - - - - 10.6 1029.3 0.0
18/05:30pm WNW 17 22 - - - - - - - 10.6 1028.9 0.0
18/05:00pm WNW 21 25 - - - - - - - 10.7 1028.7 0.0
18/04:30pm WNW 22 24 - - - - - - - 10.7 1028.6 0.0
18/04:00pm WNW 20 24 - - - - - - - 10.9 1028.5 0.0
18/03:30pm WNW 22 26 - - - - - - - 11.0 1028.2 0.0
18/03:00pm WNW 21 25 - - - - - - - 11.1 1028.4 0.0
18/02:30pm WNW 21 24 - - - - - - - 11.1 1028.2 0.0
18/02:00pm WNW 21 25 - - - - - - - 11.3 1028.2 0.0
18/01:30pm WNW 22 25 - - - - - - - 11.5 1027.9 0.0
18/01:00pm WNW 22 26 - - - - - - - 11.6 1027.9 0.0
18/12:30pm WNW 22 25 - - - - - - - 11.0 1028.1 0.0
18/12:00pm WNW 21 25 - - - - - - - 11.4 1028.7 0.0
18/11:30am WNW 21 24 - - - - - - - 11.2 1028.5 0.0
18/11:00am WNW 23 27 - - - - - - - 11.7 1028.7 0.0
18/10:30am NW 26 29 - - - - - - - 11.5 1027.8 0.0
18/10:00am WNW 23 27 - - - - - - - 11.4 1028.1 0.0
18/09:30am WNW 24 29 - - - - - - - 11.5 1027.9 0.0
18/09:00am WNW 22 25 2 2.5 11 SW 10 Partly cloudy Fine 11.6 1028.5 0.2
18/08:30am WNW 24 27 - - - - - - - 11.5 1027.9 0.2
18/08:00am WNW 23 27 - - - - - - - 11.6 1027.3 0.0
18/07:30am WNW 24 29 - - - - - - - 11.8 1027.1 0.0
18/07:00am WNW 23 25 - - - - - - - 11.8 1027.1 0.0
18/06:30am WNW 24 28 - - - - - - - 11.8 1026.4 0.0
18/06:00am NW 31 35 2 3.5 11 SW 20 Partly cloudy Fine 13.0 1025.9 0.0
18/05:30am NW 30 35 - - - - - - - 12.8 1025.3 0.0
18/05:00am NW 30 33 - - - - - - - 13.0 1025.0 0.0
18/04:30am NW 29 35 - - - - - - - 12.8 1024.6 0.0
18/04:00am NW 30 36 - - - - - - - 12.6 1024.4 0.0
18/03:30am NW 31 36 - - - - - - - 12.8 1024.5 0.0
18/03:00am NW 31 36 - - - - - - - 12.9 1024.7 0.0
18/02:30am NW 31 37 - - - - - - - 12.9 1024.4 0.0
18/02:00am NW 28 32 - - - - - - - 13.0 1024.7 0.0
18/01:30am NW 27 31 - - - - - - - 13.0 1024.4 0.0
18/01:00am NW 29 34 - - - - - - - 12.9 1024.3 0.0
18/12:30am NW 26 31 - - - - - - - 13.1 1024.5 0.0
18/12:00am NW 29 34 - - - - - - - 13.0 1024.3 0.0
 
Date/Time
EST
Wind Sea
Height
m
Swell Vis
km
Cloud Weather Temp
°C
Press
hPa
Rain since
9am
mm
Dir  Spd
kts
Gust
kts
Height
m
Period
s
Dir
17/11:30pm NW 29 37 - - - - - - - 13.0 1024.3 0.0
17/11:00pm NW 27 33 - - - - - - - 13.0 1024.3 0.0
17/10:30pm NW 30 34 - - - - - - - 13.0 1024.1 0.0
17/10:00pm NW 29 33 - - - - - - - 13.1 1024.1 0.0
17/09:30pm NW 27 31 - - - - - - - 13.1 1024.1 0.0
17/09:00pm NW 32 36 - - - - - - - 13.2 1024.0 0.0
17/08:30pm NW 34 40 - - - - - - - 13.1 1023.3 0.0
17/08:00pm NW 32 37 - - - - - - - 13.3 1023.1 0.0
17/07:30pm NW 29 33 - - - - - - - 13.4 1022.9 0.0
17/07:00pm NW 28 34 - - - - - - - 13.4 1022.7 0.0
17/06:30pm NW 27 33 - - - - - - - 13.2 1022.6 0.0
17/06:00pm NW 30 35 - - - - - - - 13.3 1022.3 0.0
17/05:30pm NW 31 37 - - - - - - - 13.2 1021.7 0.0
17/05:00pm NW 35 39 - - - - - - - 13.1 1021.4 0.0

Other formats

Comma delimited format used in spreadsheet applications
http://www.bom.gov.au/fwo/IDT60701/IDT60701.94962.axf

JavaScript Object Notation format (JSON) in row-major order
http://www.bom.gov.au/fwo/IDT60701/IDT60701.94962.json

Data quality

Most of these data are generated automatically and are frequently updated. Quality checks on data are not normally performed. It is possible for incorrect values to appear. Refer to information at About Latest Weather Observations and please check the disclaimer before using these data.